Airfield :
LOGIN :

Register | Disclaimer

   EN    FR    IT 

 










Legend :    VFR   Marginal VFR   IFR   Intensive IFR   Very Intensive IFR
Visi :
Ceiling :
>= 8 km
>= 3000ft
5 to 8 km
1000 to 3000 ft
1500m to 5 km
500 to 1000 ft
800 to 1500m
200 to 500 ft
< 800m
< 200 ft
Symbols :   Thunderstorms  Fog  Heavy snow  Heavy precipitations  Wind > 20 kt
SIGMETs :     Misc.  Thunderstorms  Icing  Turbulence  Mountain Waves  Volcanic Ashes






- Airport Elevation : 408 ft
- IATA code : FKB


EDSB - Karlsruhe Baden Baden

CURRENT METAR :
  • 180920Z 26006KT 220V300 9999 FEW048 BKN057 05/03 Q1027

EXPIRED METARs :
  • 180850Z 23009KT 9999 FEW048 BKN057 05/03 Q1027
  • 180820Z 22010KT CAVOK 05/03 Q1027
  • 180750Z 21007KT 9999 SCT036 03/02 Q1027
  • 180720Z 22006KT 9999 SCT036 03/02 Q1027
  • 180650Z 21006KT 9999 SCT032 03/02 Q1027

TAF TAF EDSB
Valid from the 18 at 06:00 until the 19 at 06:00 UTC


180500Z 1806/1906 23005KT 9999 SCT030
PROB30
TEMPO 1812/1906 4500 SHRA BKN020CB
PROB30
TEMPO 1902/1906 2500 SHSN BKN014CB



MET'MAP, your aeronautical weather chart ! - Copyright ORBIFLY December 2007 - Disclaimer

ORBIFLY MET'MAP TEAM :

Programming & Development : Alexandra Zaïnal
Concept & original design : Baudouin d'Aumeries
Assistance for programming : Marc-Olivier Méhu
Technical & hardware support : Manuel Goepfert

Contact : metmap@orbifly.com




SOURCES & CREDITS :

   NOAA